Lynchburg, VA

14:16 EDT le 28 avril 2015 (GMT -0400)
VADOT | | Change Station
CLOSE
Current Station
Stations météorologiques personnelles
Location: Lynchburg, VA
Altitude: 824 ft
Stations météo à proximité

Alt. 824 ft 37.36 °N, 79.17 °W | Updated 46 minutes ago

Ciel dégagé
Ciel dégagé
63 ° F
Paraît 63 ° F
N
5
Vent Variable Vent de NNE
Gusts 5.0 mph

Aujourd'hui
Haut(e) -- | Bas -- ° F
--% Risque de précip.
Hier
Haut(e) -- | Bas -- ° F
Precip. -- pouce
6:25 AM 8:03 PM
Lune gibbeuse croissante, 75% visible
Pression 29.94 pouce
Visibilité 10.0 Miles terrestres
Nuages Ciel dégagé
Point de rosée 37 ° F
Humidité 38%
Précipitations pouce
Profondeur de la couche neigeuse Non disponible.
UV 11 sur 12
Pollen 9.70 sur 12
Qualité de l'air Non disponible.
Flu Activity Sporadic
METAR KLYH 281754Z 01007KT 320V050 10SM CLR 17/03 A2995 RMK AO2 SLP139 T01720033 10178 20078 58020

More Conditions Fewer Conditions

Pression 29.94 pouce
Visibilité 10.0 Miles terrestres
Nuages Ciel dégagé
Point de rosée 37 ° F
Humidité 38%
Précipitations pouce
Profondeur de la couche neigeuse Non disponible.
UV 11 sur 12
Pollen 9.70 sur 12
Qualité de l'air Non disponible.
Flu Activity Sporadic
METAR KLYH 281754Z 01007KT 320V050 10SM CLR 17/03 A2995 RMK AO2 SLP139 T01720033 10178 20078 58020

More Conditions Fewer Conditions

10-Day Weather Forecast

Almanac

Astronomie

Apr. 28, 2015 Lever Coucher
Temps réel
Crépuscule civil
Crépuscule nautique
Crépuscule astronomique
Lune
Durée de lumière visible
Longueur du jour
Tomorrow will be .
, % of the Moon is Illuminated

Extrêmes aujourd'hui

State Highs State Lows

Community

WunderPhotos

Upload Photos

1,817,719 Photos téléchargées !

WunderBlogs® & News

Nearby

Qualité de l'air

  Qualité de l'air Indice de la qualité de l'air Polluant
Not available.

Épaisseur de neige

Station Depth Altitude

Activité sismique

Ville Distance Mag. Time & Date
Minimum magnitude displayed is 2.5.

Températures des eaux côtières

Lieu Température

Stations

Stations météo à proximité

Emplacement de la station Température Refroidissement éolien Point de rosée Humidité Vent Precip. Alt. Mise à jour Type